Time;durP1;ratioP1;P1;durP2;ratioP2;P2;SDS_P1;SDS_P2;PMS_P1;PMS_P2;Temp;Humidity;BMP_temperature;BMP_pressure;BME280_temperature;BME280_humidity;BME280_pressure;Samples;Min_cycle;Max_cycle;Signal;HPM_P1;HPM_P2
2023/01/17 00:03:08;;;;;;;13.95;12.95;;;;;;;3.35;100.00;97705.09;10133343;28;20129;-67
2023/01/17 00:13:23;;;;;;;17.98;16.13;;;;;;;3.38;100.00;97697.09;10122174;28;20475;-68
2023/01/17 00:18:19;;;;;;;16.92;15.82;;;;;;;3.37;100.00;97692.03;10181063;28;20479;-68
2023/01/17 01:36:01;;;;;;;20.77;19.48;;;;;;;2.89;100.00;97674.88;10157800;28;20066;-69
2023/01/17 01:40:57;;;;;;;19.55;18.25;;;;;;;2.92;100.00;97676.88;10119361;28;20043;-69
2023/01/17 01:45:56;;;;;;;19.27;17.95;;;;;;;2.88;100.00;97670.59;10155688;28;20047;-69
2023/01/17 01:50:53;;;;;;;19.58;18.48;;;;;;;2.92;100.00;97660.69;10118928;28;20046;-69
2023/01/17 01:55:51;;;;;;;17.02;15.93;;;;;;;2.87;100.00;97652.81;10143014;28;20053;-69
2023/01/17 02:00:47;;;;;;;18.63;17.52;;;;;;;2.87;100.00;97658.22;10118004;28;20437;-69
2023/01/17 02:05:44;;;;;;;20.73;19.42;;;;;;;2.84;100.00;97653.53;10122682;28;20039;-67
2023/01/17 02:10:42;;;;;;;21.83;20.52;;;;;;;2.94;100.00;97661.13;10116952;28;20488;-69
2023/01/17 02:15:54;;;;;;;20.92;19.63;;;;;;;2.85;100.00;97657.78;10160859;28;20133;-69
2023/01/17 02:20:57;;;;;;;20.10;18.80;;;;;;;2.94;100.00;97658.44;10195570;28;20438;-69
2023/01/17 02:26:24;;;;;;;21.08;19.58;;;;;;;2.85;100.00;97660.47;10171802;28;20046;-68
2023/01/17 02:31:31;;;;;;;20.58;19.15;;;;;;;2.87;100.00;97659.00;10168328;28;20465;-69
2023/01/17 02:36:50;;;;;;;20.83;19.27;;;;;;;2.93;100.00;97656.88;10171096;28;20132;-69
2023/01/17 02:41:52;;;;;;;22.23;20.63;;;;;;;2.87;100.00;97659.00;10140431;28;20050;-69
2023/01/17 02:46:54;;;;;;;22.40;21.00;;;;;;;2.94;100.00;97658.44;10176043;28;20088;-68
2023/01/17 02:52:06;;;;;;;21.70;20.23;;;;;;;3.02;100.00;97654.81;10123796;28;20074;-68
2023/01/17 02:57:36;;;;;;;22.45;20.95;;;;;;;3.03;100.00;97652.91;10157163;28;20043;-68
2023/01/17 03:03:01;;;;;;;22.77;21.27;;;;;;;3.06;100.00;97650.28;10115830;28;20058;-68
2023/01/17 03:08:00;;;;;;;23.65;21.85;;;;;;;3.11;100.00;97658.16;10135265;28;20423;-69
2023/01/17 03:12:58;;;;;;;24.60;23.13;;;;;;;3.17;100.00;97656.00;10115657;28;20055;-69
2023/01/17 03:17:59;;;;;;;25.88;24.15;;;;;;;3.21;100.00;97650.72;10193003;28;20534;-69
2023/01/17 03:22:56;;;;;;;27.17;25.27;;;;;;;3.17;100.00;97656.78;10181959;28;20539;-69
2023/01/17 03:27:52;;;;;;;26.50;24.48;;;;;;;3.22;100.00;97657.66;10192967;28;20128;-69
2023/01/17 03:32:48;;;;;;;27.10;25.15;;;;;;;3.21;100.00;97656.88;10176807;28;20578;-68
2023/01/17 03:37:45;;;;;;;28.77;26.58;;;;;;;3.17;100.00;97656.78;10192288;28;20041;-68
2023/01/17 03:42:42;;;;;;;25.38;23.58;;;;;;;3.28;100.00;97664.41;10147213;28;20055;-68
2023/01/17 03:47:38;;;;;;;30.58;28.25;;;;;;;3.20;100.00;97671.50;10187961;28;20475;-68
2023/01/17 03:52:34;;;;;;;25.60;23.60;;;;;;;3.24;100.00;97671.59;10140175;28;20124;-68
2023/01/17 03:57:31;;;;;;;27.23;25.00;;;;;;;3.19;100.00;97666.47;10185974;28;20121;-68
2023/01/17 04:02:27;;;;;;;25.13;23.23;;;;;;;3.11;100.00;97671.66;10114582;28;20532;-68
2023/01/17 04:07:24;;;;;;;26.83;24.92;;;;;;;3.20;100.00;97676.13;10124807;28;20798;-69
2023/01/17 04:12:20;;;;;;;27.50;25.48;;;;;;;3.16;100.00;97670.63;10153374;28;20042;-69
2023/01/17 04:17:18;;;;;;;25.60;23.67;;;;;;;3.13;100.00;97672.09;10175417;28;20056;-69
2023/01/17 04:22:15;;;;;;;23.00;21.27;;;;;;;2.90;100.00;97676.44;10148543;28;20075;-68
2023/01/17 04:27:13;;;;;;;19.00;17.75;;;;;;;2.69;100.00;97673.88;10151280;28;20086;-69
2023/01/17 04:32:09;;;;;;;18.27;17.08;;;;;;;2.56;100.00;97681.22;10113633;28;20065;-68
2023/01/17 04:37:05;;;;;;;20.08;18.60;;;;;;;2.50;100.00;97690.66;10145899;28;20046;-68
2023/01/17 04:42:02;;;;;;;20.10;18.70;;;;;;;2.30;100.00;97706.63;10155554;28;20089;-68
2023/01/17 04:47:00;;;;;;;19.58;18.27;;;;;;;2.26;100.00;97700.31;10187815;28;20089;-68
2023/01/17 04:51:57;;;;;;;18.25;17.05;;;;;;;2.19;100.00;97705.47;10198175;28;20049;-69
2023/01/17 04:56:53;;;;;;;19.27;17.98;;;;;;;2.14;100.00;97713.78;10181974;28;20484;-69
2023/01/17 05:01:50;;;;;;;20.50;19.13;;;;;;;2.12;100.00;97721.44;10165553;28;20086;-68
2023/01/17 05:06:46;;;;;;;20.55;18.98;;;;;;;2.11;100.00;97714.44;10188071;28;20065;-68
2023/01/17 05:11:42;;;;;;;21.85;20.33;;;;;;;2.13;100.00;97723.00;10160124;28;20055;-68
2023/01/17 05:16:39;;;;;;;23.45;21.75;;;;;;;2.21;100.00;97724.81;10177569;28;20157;-68
2023/01/17 05:21:35;;;;;;;22.95;21.25;;;;;;;2.26;100.00;97729.19;10137731;28;20057;-68
2023/01/17 05:26:32;;;;;;;22.90;21.23;;;;;;;2.28;100.00;97738.53;10175056;28;20720;-68
2023/01/17 05:31:28;;;;;;;24.05;22.15;;;;;;;2.33;100.00;97734.81;10137270;28;20535;-68
2023/01/17 05:36:25;;;;;;;20.17;18.75;;;;;;;2.37;100.00;97743.00;10164518;28;20042;-68
2023/01/17 05:41:21;;;;;;;23.17;21.38;;;;;;;2.42;100.00;97751.69;10119425;28;20109;-68
2023/01/17 05:46:18;;;;;;;23.17;21.48;;;;;;;2.41;100.00;97771.66;10142899;28;20558;-68
2023/01/17 05:51:14;;;;;;;23.65;21.95;;;;;;;2.43;100.00;97779.44;10133577;28;20472;-68
2023/01/17 05:56:11;;;;;;;22.38;20.88;;;;;;;2.42;100.00;97794.03;10129281;28;20047;-68
2023/01/17 06:01:07;;;;;;;19.98;18.67;;;;;;;2.28;100.00;97811.31;10118018;28;20114;-68
2023/01/17 06:06:04;;;;;;;20.20;18.92;;;;;;;2.20;100.00;97852.63;10124506;28;20069;-68
2023/01/17 06:11:00;;;;;;;18.02;16.85;;;;;;;2.05;100.00;97831.69;10117852;28;20125;-68
2023/01/17 06:16:01;;;;;;;18.35;17.27;;;;;;;2.02;100.00;97837.72;10164490;28;20718;-68
2023/01/17 06:20:58;;;;;;;18.33;17.13;;;;;;;1.99;100.00;97841.09;10196911;28;20045;-68
2023/01/17 06:25:54;;;;;;;18.92;17.92;;;;;;;1.94;100.00;97870.94;10171056;28;20073;-68
2023/01/17 06:30:51;;;;;;;18.15;17.00;;;;;;;1.84;100.00;97878.31;10196222;28;20141;-68
2023/01/17 06:35:52;;;;;;;18.30;17.00;;;;;;;1.78;100.00;97885.00;10166034;28;20050;-68
2023/01/17 06:40:48;;;;;;;18.92;17.52;;;;;;;1.67;100.00;97910.75;10164394;28;20129;-68
2023/01/17 06:45:45;;;;;;;18.20;17.15;;;;;;;1.68;100.00;97923.13;10159515;28;20042;-68
2023/01/17 06:50:42;;;;;;;21.38;20.00;;;;;;;1.61;100.00;97922.84;10142416;28;20051;-68
2023/01/17 06:55:39;;;;;;;18.80;17.30;;;;;;;1.59;100.00;97941.25;10172623;28;20042;-69
2023/01/17 07:00:35;;;;;;;17.85;16.70;;;;;;;1.53;100.00;97959.47;10135492;28;20042;-68
2023/01/17 07:05:35;;;;;;;17.65;16.45;;;;;;;1.56;100.00;97974.22;10145561;28;20042;-68
2023/01/17 07:10:32;;;;;;;17.23;15.85;;;;;;;1.52;100.00;97989.44;10115247;28;20453;-69
2023/01/17 07:15:28;;;;;;;18.50;16.92;;;;;;;1.51;100.00;97971.69;10124647;28;20046;-68
2023/01/17 07:20:25;;;;;;;19.48;17.80;;;;;;;1.51;100.00;97999.44;10115143;28;20470;-68
2023/01/17 07:25:21;;;;;;;20.45;18.70;;;;;;;1.53;100.00;98007.16;10151868;28;20061;-69
2023/01/17 07:30:18;;;;;;;19.40;18.20;;;;;;;1.56;100.00;98020.00;10194373;28;20061;-68
2023/01/17 07:35:14;;;;;;;21.10;19.08;;;;;;;1.63;100.00;98023.75;10165264;28;20177;-68
2023/01/17 07:40:11;;;;;;;21.55;19.90;;;;;;;1.69;100.00;98040.50;10194355;28;20444;-68
2023/01/17 07:45:08;;;;;;;22.10;20.25;;;;;;;1.75;100.00;98047.31;10164041;28;20088;-68
2023/01/17 07:50:06;;;;;;;19.15;17.77;;;;;;;1.80;100.00;98055.19;10183959;28;20047;-68
2023/01/17 07:55:03;;;;;;;21.20;19.48;;;;;;;1.81;100.00;98067.56;10146252;28;20053;-69
2023/01/17 08:00:00;;;;;;;20.77;18.95;;;;;;;1.83;100.00;98092.28;10178463;28;20094;-68
2023/01/17 08:04:56;;;;;;;19.63;18.15;;;;;;;1.84;100.00;98103.84;10144346;28;20066;-68
2023/01/17 08:09:53;;;;;;;20.20;18.40;;;;;;;1.78;100.00;98130.16;10167683;28;20050;-68
2023/01/17 08:14:50;;;;;;;20.42;18.80;;;;;;;1.61;100.00;98143.72;10142082;28;20077;-68
2023/01/17 08:19:50;;;;;;;20.65;18.80;;;;;;;1.36;100.00;98148.81;10151786;28;20142;-68
2023/01/17 08:24:46;;;;;;;20.35;18.67;;;;;;;1.32;100.00;98145.16;10149285;28;20041;-68
2023/01/17 08:29:45;;;;;;;21.95;20.02;;;;;;;1.28;100.00;98157.72;10123020;28;20535;-69
2023/01/17 08:34:42;;;;;;;21.60;20.10;;;;;;;1.33;100.00;98154.84;10127195;28;20038;-68
2023/01/17 08:39:38;;;;;;;21.60;19.90;;;;;;;1.40;100.00;98159.75;10120840;28;20113;-69
2023/01/17 08:44:35;;;;;;;19.98;18.20;;;;;;;1.49;100.00;98173.22;10145678;28;20482;-68
2023/01/17 08:49:31;;;;;;;20.63;18.88;;;;;;;1.60;100.00;98185.19;10198413;28;20511;-68
2023/01/17 08:54:28;;;;;;;20.23;18.85;;;;;;;1.68;100.00;98192.47;10143304;28;20045;-68
2023/01/17 08:59:24;;;;;;;22.15;19.13;;;;;;;1.85;100.00;98187.03;10165361;28;20050;-69
2023/01/17 09:04:20;;;;;;;19.55;18.15;;;;;;;2.03;100.00;98203.16;10140988;28;20069;-68
2023/01/17 09:09:17;;;;;;;18.38;16.88;;;;;;;1.85;100.00;98192.41;10147764;28;20046;-68
2023/01/17 09:14:14;;;;;;;17.15;15.57;;;;;;;1.54;100.00;98218.81;10136413;28;20540;-68
2023/01/17 09:19:10;;;;;;;18.95;17.25;;;;;;;1.51;100.00;98224.81;10119505;28;20058;-68
2023/01/17 09:24:07;;;;;;;21.27;19.67;;;;;;;1.56;100.00;98222.00;10128783;28;20055;-68
2023/01/17 09:29:03;;;;;;;20.52;18.88;;;;;;;1.75;100.00;98235.88;10118488;28;20055;-68
2023/01/17 09:34:00;;;;;;;19.20;17.20;;;;;;;1.83;100.00;98248.56;10134588;28;20508;-68
2023/01/17 09:38:58;;;;;;;20.85;18.90;;;;;;;1.84;100.00;98255.53;10198069;28;20578;-68
2023/01/17 09:43:58;;;;;;;18.02;16.55;;;;;;;1.71;100.00;98278.03;10133068;28;20101;-68
2023/01/17 09:49:11;;;;;;;17.95;16.48;;;;;;;1.45;100.00;98297.69;10195963;28;20054;-68
2023/01/17 09:54:20;;;;;;;18.17;16.98;;;;;;;1.12;100.00;98301.94;10135951;28;20049;-68
2023/01/17 09:59:32;;;;;;;19.50;17.58;;;;;;;1.21;100.00;98297.38;10187350;28;20046;-67
2023/01/17 10:04:47;;;;;;;20.48;18.50;;;;;;;1.32;100.00;98301.31;10141793;28;20092;-68
2023/01/17 10:09:55;;;;;;;;;;;;;;;1.47;100.00;98295.47;10163947;28;20884;-68
2023/01/17 10:14:54;;;;;;;18.85;17.65;;;;;;;1.61;100.00;98305.31;10146270;28;20000;-67
2023/01/17 10:20:18;;;;;;;18.58;17.10;;;;;;;1.86;100.00;98301.81;10152048;28;20065;-67
2023/01/17 10:25:32;;;;;;;18.50;16.63;;;;;;;2.28;100.00;98307.44;10152315;28;20046;-68
2023/01/17 10:30:33;;;;;;;13.82;12.73;;;;;;;2.57;100.00;98291.63;10158310;28;20105;-68
2023/01/17 10:35:35;;;;;;;15.37;13.93;;;;;;;2.97;100.00;98302.88;10176354;28;20050;-68
2023/01/17 10:40:50;;;;;;;9.40;8.32;;;;;;;2.91;100.00;98293.38;10116355;28;20416;-67
2023/01/17 10:45:54;;;;;;;12.98;7.95;;;;;;;2.94;100.00;98295.41;10132867;28;20130;-67
2023/01/17 10:51:11;;;;;;;10.07;7.25;;;;;;;2.55;100.00;98297.34;10116030;28;20046;-68
2023/01/17 10:56:11;;;;;;;8.52;7.60;;;;;;;2.68;100.00;98299.03;10165312;28;20156;-68
2023/01/17 11:01:20;;;;;;;8.70;7.18;;;;;;;2.57;100.00;98307.81;10195492;28;20123;-68
2023/01/17 11:06:25;;;;;;;10.10;6.80;;;;;;;2.58;100.00;98299.41;10176678;28;20053;-67
2023/01/17 11:11:30;;;;;;;7.40;6.63;;;;;;;2.77;100.00;98317.09;10195203;28;20068;-68
2023/01/17 11:16:30;;;;;;;15.38;8.40;;;;;;;3.05;100.00;98312.81;10173001;28;20049;-67
2023/01/17 11:21:26;;;;;;;13.60;6.30;;;;;;;2.97;100.00;98316.38;10171832;28;20081;-68
2023/01/17 11:26:29;;;;;;;9.63;6.15;;;;;;;3.28;100.00;98310.59;10168622;28;20055;-68
2023/01/17 11:31:26;;;;;;;8.38;6.15;;;;;;;3.15;100.00;98317.81;10170185;28;20520;-67
2023/01/17 11:36:27;;;;;;;15.15;5.40;;;;;;;3.27;100.00;98324.44;10167779;28;20054;-68
2023/01/17 11:41:26;;;;;;;6.67;5.43;;;;;;;3.47;100.00;98317.47;10130166;28;20050;-68
2023/01/17 11:46:24;;;;;;;8.52;5.38;;;;;;;3.25;100.00;98310.47;10152703;28;20050;-68
2023/01/17 11:51:25;;;;;;;6.15;5.47;;;;;;;3.29;100.00;98314.09;10114637;28;20552;-67
2023/01/17 11:56:31;;;;;;;6.20;5.60;;;;;;;3.42;100.00;98321.16;10155574;28;20058;-68
2023/01/17 12:01:45;;;;;;;6.70;5.63;;;;;;;3.92;100.00;98319.47;10154052;28;20050;-67
2023/01/17 12:07:03;;;;;;;5.88;4.97;;;;;;;3.79;100.00;98327.53;10124915;28;20406;-67
2023/01/17 12:17:24;;;;;;;8.88;5.13;;;;;;;3.49;100.00;98337.63;10146965;28;20053;-67
2023/01/17 12:22:38;;;;;;;8.57;4.78;;;;;;;3.08;100.00;98344.56;10150603;28;20062;-67
2023/01/17 12:28:10;;;;;;;6.90;5.45;;;;;;;3.13;100.00;98347.09;10186097;28;20061;-67
2023/01/17 12:33:18;;;;;;;11.63;5.55;;;;;;;3.03;100.00;98358.25;10138266;28;20082;-68
2023/01/17 12:38:37;;;;;;;4.90;4.50;;;;;;;2.75;100.00;98360.59;10192234;28;20073;-67
2023/01/17 12:43:39;;;;;;;5.30;4.32;;;;;;;2.97;100.00;98359.56;10121403;28;20104;-68
2023/01/17 12:48:38;;;;;;;8.10;4.65;;;;;;;3.32;100.00;98362.84;10184120;28;20074;-68
2023/01/17 12:53:58;;;;;;;4.70;4.18;;;;;;;4.69;100.00;98365.81;10121118;28;20468;-67
2023/01/17 12:59:09;;;;;;;8.30;4.60;;;;;;;4.57;100.00;98363.88;10150919;28;20054;-67
2023/01/17 13:04:20;;;;;;;4.60;4.20;;;;;;;3.83;100.00;98376.34;10132562;28;20054;-68
2023/01/17 13:09:20;;;;;;;6.80;4.50;;;;;;;4.63;100.00;98386.09;10119660;28;20133;-66
2023/01/17 13:14:16;;;;;;;5.68;4.70;;;;;;;4.45;100.00;98382.00;10132763;28;20467;-69
2023/01/17 13:19:24;;;;;;;5.30;4.15;;;;;;;4.39;100.00;98384.91;10119262;28;20150;-68
2023/01/17 13:24:30;;;;;;;6.20;4.22;;;;;;;4.07;100.00;98399.22;10128412;28;20047;-72
2023/01/17 13:29:47;;;;;;;4.80;4.30;;;;;;;3.97;100.00;98395.78;10149524;28;20146;-71
2023/01/17 13:34:44;;;;;;;11.10;4.53;;;;;;;4.10;100.00;98398.53;10168918;28;20084;-71
2023/01/17 13:39:57;;;;;;;6.15;5.03;;;;;;;4.10;100.00;98398.53;10157016;28;20401;-71
2023/01/17 13:44:55;;;;;;;4.45;4.05;;;;;;;3.88;100.00;98402.38;10171846;28;20081;-72
2023/01/17 13:49:55;;;;;;;6.32;4.45;;;;;;;3.87;100.00;98411.59;10198030;28;20050;-71
2023/01/17 13:55:03;;;;;;;6.97;4.88;;;;;;;3.59;100.00;98418.28;10165826;28;20053;-71
2023/01/17 14:00:20;;;;;;;7.13;4.55;;;;;;;3.85;100.00;98436.25;10146844;28;20062;-71
2023/01/17 14:05:20;;;;;;;4.88;4.22;;;;;;;3.86;100.00;98432.44;10125534;28;20047;-71
2023/01/17 14:10:44;;;;;;;8.55;3.90;;;;;;;3.55;100.00;98439.00;10117554;28;20492;-71
2023/01/17 14:15:48;;;;;;;6.88;4.38;;;;;;;3.62;100.00;98446.59;10124852;28;20126;-71
2023/01/17 14:20:48;;;;;;;6.15;4.07;;;;;;;3.26;100.00;98447.09;10117702;28;20047;-70
2023/01/17 14:25:45;;;;;;;6.32;4.25;;;;;;;3.26;100.00;98460.59;10120303;28;20069;-71
2023/01/17 14:30:41;;;;;;;9.27;5.13;;;;;;;3.15;100.00;98457.44;10117009;28;20127;-70
2023/01/17 14:35:47;;;;;;;7.28;4.22;;;;;;;3.02;100.00;98464.66;10158448;28;20121;-71
2023/01/17 14:40:51;;;;;;;4.43;4.00;;;;;;;2.86;100.00;98472.47;10182146;28;20093;-71
2023/01/17 14:45:48;;;;;;;6.07;4.35;;;;;;;2.79;100.00;98479.50;10160703;28;20508;-70
2023/01/17 14:50:46;;;;;;;9.30;4.93;;;;;;;2.77;100.00;98484.41;10161482;28;20047;-71
2023/01/17 14:55:45;;;;;;;6.18;4.18;;;;;;;2.77;100.00;98479.00;10159532;28;20065;-71
2023/01/17 15:00:42;;;;;;;5.30;4.40;;;;;;;2.87;100.00;98484.84;10130369;28;20074;-70
2023/01/17 15:05:40;;;;;;;6.82;4.20;;;;;;;2.78;100.00;98496.78;10146280;28;20092;-70
2023/01/17 15:10:46;;;;;;;8.45;5.07;;;;;;;2.68;100.00;98504.09;10115914;28;20061;-70
2023/01/17 15:15:43;;;;;;;7.88;4.72;;;;;;;2.68;100.00;98504.09;10139713;28;20513;-70
2023/01/17 15:20:42;;;;;;;6.57;5.55;;;;;;;2.67;100.00;98507.91;10115048;28;20043;-70
2023/01/17 15:25:40;;;;;;;6.00;4.57;;;;;;;2.60;100.00;98513.00;10124716;28;20101;-70
2023/01/17 15:30:36;;;;;;;6.78;4.60;;;;;;;2.47;100.00;98527.44;10140568;28;20058;-70
2023/01/17 15:35:33;;;;;;;6.00;4.40;;;;;;;2.38;100.00;98526.66;10169172;28;20133;-71
2023/01/17 15:40:32;;;;;;;5.93;5.20;;;;;;;2.26;100.00;98530.75;10193848;28;20117;-70
2023/01/17 15:45:32;;;;;;;7.20;5.00;;;;;;;2.19;100.00;98525.03;10169941;28;20049;-70
2023/01/17 15:50:30;;;;;;;5.70;5.20;;;;;;;2.21;100.00;98533.63;10180590;28;20074;-70
2023/01/17 15:55:33;;;;;;;6.32;5.55;;;;;;;2.06;100.00;98531.34;10152742;28;20081;-71
2023/01/17 16:00:37;;;;;;;6.68;5.45;;;;;;;2.01;100.00;98526.13;10164947;28;20472;-71
2023/01/17 16:05:40;;;;;;;9.98;6.40;;;;;;;2.02;100.00;98535.78;10153802;28;20057;-70
2023/01/17 16:10:38;;;;;;;7.25;5.95;;;;;;;2.07;100.00;98538.34;10143372;28;20069;-71
2023/01/17 16:15:36;;;;;;;6.82;6.22;;;;;;;1.97;100.00;98560.19;10155315;28;20042;-71
2023/01/17 16:20:36;;;;;;;9.23;7.43;;;;;;;1.97;100.00;98566.38;10113704;28;20039;-71
2023/01/17 16:25:32;;;;;;;7.00;6.40;;;;;;;1.91;100.00;98572.25;10130911;28;20043;-71
2023/01/17 16:30:30;;;;;;;8.90;7.07;;;;;;;1.89;100.00;98586.81;10113772;28;20045;-70
2023/01/17 16:35:29;;;;;;;7.50;6.68;;;;;;;1.82;100.00;98581.09;10150174;28;20423;-71
2023/01/17 16:40:28;;;;;;;8.57;7.68;;;;;;;1.78;100.00;98574.72;10199537;28;20076;-71
2023/01/17 16:45:25;;;;;;;11.20;7.50;;;;;;;1.73;100.00;98588.34;10165323;28;20053;-71
2023/01/17 16:50:23;;;;;;;9.63;8.70;;;;;;;1.65;100.00;98591.81;10200900;28;20136;-71
2023/01/17 16:55:23;;;;;;;8.90;8.10;;;;;;;1.58;100.00;98594.13;10157411;28;20133;-71
2023/01/17 17:00:19;;;;;;;9.98;8.90;;;;;;;1.54;100.00;98601.25;10175762;28;20050;-71
2023/01/17 17:05:16;;;;;;;11.10;9.25;;;;;;;1.43;100.00;98606.91;10156172;28;20423;-71
2023/01/17 17:10:15;;;;;;;11.60;9.70;;;;;;;1.38;100.00;98619.72;10144658;28;20061;-71
2023/01/17 17:15:12;;;;;;;12.57;9.65;;;;;;;1.40;100.00;98626.38;10153990;28;20077;-71
2023/01/17 17:20:12;;;;;;;10.65;9.70;;;;;;;1.29;100.00;98622.34;10144205;28;20515;-70
2023/01/17 17:25:10;;;;;;;11.20;10.15;;;;;;;1.30;100.00;98634.72;10145258;28;20054;-70
2023/01/17 17:30:08;;;;;;;14.13;11.80;;;;;;;1.26;100.00;98639.91;10119076;28;20133;-70
2023/01/17 17:35:04;;;;;;;12.68;9.65;;;;;;;1.27;100.00;98643.38;10150212;28;20085;-70
2023/01/17 17:40:02;;;;;;;14.88;9.43;;;;;;;1.17;100.00;98657.09;10160526;28;20129;-70
2023/01/17 17:44:58;;;;;;;11.50;10.40;;;;;;;1.18;100.00;98658.69;10160351;28;20419;-70
2023/01/17 17:49:55;;;;;;;11.98;10.32;;;;;;;1.11;100.00;98666.38;10157332;28;20046;-71
2023/01/17 17:54:51;;;;;;;16.20;11.93;;;;;;;1.12;100.00;98673.38;10150681;28;20046;-71
2023/01/17 17:59:48;;;;;;;15.32;11.48;;;;;;;1.08;100.00;98675.88;10156899;28;20125;-70
2023/01/17 18:04:44;;;;;;;13.00;11.75;;;;;;;1.03;100.00;98678.69;10166235;28;20065;-71
2023/01/17 18:09:41;;;;;;;13.02;11.70;;;;;;;1.01;100.00;98687.06;10168841;28;20049;-70
2023/01/17 18:14:39;;;;;;;17.05;12.63;;;;;;;0.97;100.00;98691.44;10142611;28;20081;-70
2023/01/17 18:19:35;;;;;;;11.85;10.65;;;;;;;0.95;100.00;98699.06;10142285;28;20046;-71
2023/01/17 18:24:31;;;;;;;12.60;11.50;;;;;;;0.90;100.00;98696.44;10149393;28;20069;-70
2023/01/17 18:29:28;;;;;;;12.13;10.85;;;;;;;0.90;100.00;98717.97;10124871;28;20049;-70
2023/01/17 18:34:28;;;;;;;13.57;12.20;;;;;;;0.82;100.00;98710.63;10138940;28;20700;-71
2023/01/17 18:39:26;;;;;;;14.68;11.70;;;;;;;0.86;100.00;98717.00;10124193;28;20050;-71
2023/01/17 18:44:23;;;;;;;11.98;10.88;;;;;;;0.84;100.00;98719.22;10132720;28;20096;-71
2023/01/17 18:49:19;;;;;;;13.05;11.75;;;;;;;0.78;100.00;98717.72;10116020;28;20461;-71
2023/01/17 18:54:16;;;;;;;17.80;12.50;;;;;;;0.79;100.00;98733.56;10135468;28;20100;-71
2023/01/17 18:59:16;;;;;;;13.93;11.70;;;;;;;0.79;100.00;98738.13;10194112;28;20038;-71
2023/01/17 19:04:14;;;;;;;13.55;11.38;;;;;;;0.79;100.00;98727.38;10136134;28;20053;-71
2023/01/17 19:09:13;;;;;;;13.85;11.85;;;;;;;0.79;100.00;98727.38;10165991;28;20058;-71
2023/01/17 19:14:11;;;;;;;15.07;11.93;;;;;;;0.83;100.00;98733.75;10148722;28;20554;-71
2023/01/17 19:19:11;;;;;;;14.73;11.70;;;;;;;0.73;100.00;98723.22;10146473;28;20042;-71
2023/01/17 19:24:09;;;;;;;11.75;10.48;;;;;;;0.79;100.00;98733.56;10154931;28;20125;-71
2023/01/17 19:29:05;;;;;;;15.35;11.20;;;;;;;0.76;100.00;98734.16;10139352;28;20082;-70
2023/01/17 19:34:02;;;;;;;12.35;10.77;;;;;;;0.76;100.00;98738.75;10148132;28;20517;-71
2023/01/17 19:38:59;;;;;;;17.25;12.07;;;;;;;0.67;100.00;98745.91;10113993;28;20051;-70
2023/01/17 19:44:04;;;;;;;12.98;11.15;;;;;;;0.61;100.00;98747.94;10130150;28;20049;-71
2023/01/17 19:49:01;;;;;;;13.00;10.70;;;;;;;0.57;100.00;98768.44;10169515;28;20125;-71
2023/01/17 19:53:59;;;;;;;18.80;10.52;;;;;;;0.58;100.00;98752.00;10149469;28;20079;-71
2023/01/17 19:58:59;;;;;;;16.15;11.30;;;;;;;0.57;100.00;98757.69;10193148;28;20568;-71
2023/01/17 20:03:57;;;;;;;20.08;12.35;;;;;;;0.54;100.00;98752.91;10148219;28;20499;-71
2023/01/17 20:08:54;;;;;;;17.63;11.32;;;;;;;0.51;100.00;98765.06;10178314;28;20125;-71
2023/01/17 20:13:53;;;;;;;14.68;11.05;;;;;;;0.45;100.00;98760.88;10134088;28;20128;-71
2023/01/17 20:18:50;;;;;;;13.40;10.50;;;;;;;0.37;100.00;98759.69;10140514;28;20039;-70
2023/01/17 20:23:48;;;;;;;14.05;11.15;;;;;;;0.36;100.00;98768.81;10137819;28;20120;-71
2023/01/17 20:28:47;;;;;;;16.40;11.95;;;;;;;0.30;100.00;98774.59;10128419;28;20846;-71
2023/01/17 20:33:45;;;;;;;15.13;10.35;;;;;;;0.28;100.00;98777.59;10154730;28;20070;-71
2023/01/17 20:38:44;;;;;;;15.57;11.55;;;;;;;0.26;100.00;98773.63;10126154;28;20674;-71
2023/01/17 20:43:42;;;;;;;16.73;11.15;;;;;;;0.20;100.00;98771.00;10139163;28;20037;-71
2023/01/17 20:48:45;;;;;;;13.05;10.65;;;;;;;0.19;100.00;98774.00;10164244;28;20104;-71
2023/01/17 20:53:43;;;;;;;16.52;10.63;;;;;;;0.22;100.00;98777.97;10155134;28;20046;-71
2023/01/17 20:58:40;;;;;;;12.32;10.15;;;;;;;0.28;100.00;98779.47;10205149;28;20049;-71
2023/01/17 21:03:38;;;;;;;14.40;10.68;;;;;;;0.19;100.00;98782.84;10158157;28;20072;-71
2023/01/17 21:08:36;;;;;;;12.48;10.25;;;;;;;0.19;100.00;98790.13;10178812;28;20067;-71
2023/01/17 21:13:34;;;;;;;13.50;10.77;;;;;;;0.11;100.00;98791.59;10165518;28;20486;-71
2023/01/17 21:18:30;;;;;;;11.82;10.63;;;;;;;0.01;100.00;98790.97;10158584;28;20125;-71
2023/01/17 21:23:28;;;;;;;17.70;9.82;;;;;;;0.11;100.00;98786.22;10129113;28;20050;-71
2023/01/17 21:28:27;;;;;;;14.45;10.13;;;;;;;0.03;100.00;98792.28;10184122;28;20046;-72
2023/01/17 21:33:25;;;;;;;15.75;11.95;;;;;;;-0.11;100.00;98803.00;10124418;28;20083;-71
2023/01/17 21:38:21;;;;;;;16.70;12.40;;;;;;;-0.20;100.00;98798.59;10170454;28;20067;-71
2023/01/17 21:43:18;;;;;;;15.27;12.63;;;;;;;-0.26;100.00;98812.06;10122766;28;20051;-71
2023/01/17 21:48:14;;;;;;;21.10;12.43;;;;;;;-0.25;100.00;98815.56;10150936;28;20139;-71
2023/01/17 21:53:10;;;;;;;18.25;11.15;;;;;;;-0.26;100.00;98822.81;10120861;28;20520;-71
2023/01/17 22:03:30;;;;;;;20.00;11.25;;;;;;;-0.36;100.00;98833.72;10130767;28;20070;-71
2023/01/17 22:08:32;;;;;;;14.57;11.38;;;;;;;-0.36;100.00;98839.09;10148693;28;20068;-72
2023/01/17 22:13:31;;;;;;;12.90;10.50;;;;;;;-0.38;100.00;98856.59;10151063;28;20479;-71
2023/01/17 22:18:28;;;;;;;13.20;9.80;;;;;;;-0.33;100.00;98854.63;10196764;28;20523;-71
2023/01/17 22:23:25;;;;;;;14.40;9.73;;;;;;;-0.37;100.00;98853.63;10155270;28;20535;-71
2023/01/17 22:28:22;;;;;;;12.75;10.52;;;;;;;-0.48;100.00;98863.69;10187107;28;20093;-71
2023/01/17 22:33:19;;;;;;;17.95;12.43;;;;;;;-0.55;100.00;98879.38;10120740;28;20058;-71
2023/01/17 22:38:16;;;;;;;19.77;13.25;;;;;;;-0.65;100.00;98891.03;10153917;28;20053;-71
2023/01/17 22:43:13;;;;;;;17.83;13.80;;;;;;;-0.79;100.00;98895.53;10119103;28;20078;-71
2023/01/17 22:48:09;;;;;;;18.60;14.25;;;;;;;-0.88;100.00;98897.25;10153311;28;20509;-71
2023/01/17 22:53:05;;;;;;;19.25;15.35;;;;;;;-0.98;100.00;98891.97;10131689;28;20046;-71
2023/01/17 22:58:02;;;;;;;21.00;18.10;;;;;;;-1.03;100.00;98889.38;10124512;28;20050;-71
2023/01/17 23:02:58;;;;;;;19.58;16.27;;;;;;;-1.12;100.00;98892.66;10116362;28;20098;-71
2023/01/17 23:07:56;;;;;;;21.20;16.63;;;;;;;-1.14;100.00;98897.53;10122853;28;20046;-71
2023/01/17 23:12:52;;;;;;;22.13;16.27;;;;;;;-1.20;100.00;98895.97;10144637;28;20054;-71
2023/01/17 23:23:03;;;;;;;24.52;18.80;;;;;;;-1.25;100.00;98901.41;10148747;28;20582;-71
2023/01/17 23:28:13;;;;;;;22.00;18.15;;;;;;;-1.24;100.00;98913.72;10194444;28;20062;-71
2023/01/17 23:33:14;;;;;;;22.50;17.73;;;;;;;-1.21;100.00;98915.81;10121103;28;20058;-71
2023/01/17 23:38:24;;;;;;;23.13;18.52;;;;;;;-1.18;100.00;98920.63;10181352;28;20059;-71
2023/01/17 23:43:24;;;;;;;23.17;18.65;;;;;;;-1.16;100.00;98929.19;10120034;28;20444;-71
2023/01/17 23:48:24;;;;;;;26.08;19.33;;;;;;;-1.19;100.00;98935.13;10173038;28;20046;-71
2023/01/17 23:53:21;;;;;;;25.02;20.13;;;;;;;-1.23;100.00;98934.09;10119113;28;20074;-71
2023/01/17 23:58:19;;;;;;;25.70;20.15;;;;;;;-1.27;100.00;98946.47;10162326;28;20558;-71
